createdAt,value
2017-04-12T00:00:19.973Z,97.79
2017-04-12T00:01:29.174Z,97.88
2017-04-12T00:02:38.130Z,97.88
2017-04-12T00:03:47.407Z,97.88
2017-04-12T00:04:56.356Z,97.98
2017-04-12T00:06:05.305Z,97.98
2017-04-12T00:07:14.641Z,97.6
2017-04-12T00:08:23.597Z,97.6
2017-04-12T00:09:32.553Z,97.98
2017-04-12T00:10:41.509Z,97.79
2017-04-12T00:11:50.465Z,97.41
2017-04-12T00:12:59.672Z,97.79
2017-04-12T00:14:08.716Z,98.27
2017-04-12T00:15:17.669Z,97.88
2017-04-12T00:16:26.621Z,98.17
2017-04-12T00:17:35.577Z,98.08
2017-04-12T00:18:44.783Z,98.17
2017-04-12T00:19:53.746Z,98.74
2017-04-12T00:21:02.699Z,97.69
2017-04-12T00:22:11.652Z,97.6
2017-04-12T00:23:20.609Z,97.5
2017-04-12T00:24:29.901Z,97.69
2017-04-12T00:25:38.941Z,97.98
2017-04-12T00:26:47.892Z,98.17
2017-04-12T00:27:56.843Z,98.65
2017-04-12T00:29:05.792Z,98.27
2017-04-12T00:30:15.051Z,98.93
2017-04-12T00:31:24.008Z,98.65
2017-04-12T00:32:32.959Z,98.74
2017-04-12T00:33:41.913Z,98.93
2017-04-12T00:34:50.871Z,98.08
2017-04-12T00:36:00.078Z,97.98
2017-04-12T00:37:09.028Z,97.79
2017-04-12T00:38:18.305Z,97.69
2017-04-12T00:39:27.256Z,97.6
2017-04-12T00:40:36.297Z,98.74
2017-04-12T00:41:45.637Z,98.79
2017-04-12T00:42:54.583Z,98.74
2017-04-12T00:44:03.533Z,98.83
2017-04-12T00:45:12.491Z,98.55
2017-04-12T00:46:21.446Z,98.36
2017-04-12T00:47:30.658Z,98.79
2017-04-12T00:48:39.618Z,99.31
2017-04-12T00:49:48.576Z,98.79
2017-04-12T00:50:57.522Z,99.31
2017-04-12T00:52:07.115Z,98.97
2017-04-12T00:53:16.613Z,98.55
2017-04-12T00:54:25.661Z,98.93
2017-04-12T00:55:34.738Z,98.93
2017-04-12T00:56:43.696Z,98.93
2017-04-12T00:57:52.655Z,98.79
2017-04-12T00:59:01.913Z,98.88
2017-04-12T01:00:11.042Z,98.79
2017-04-12T01:01:19.992Z,99.07
2017-04-12T01:02:28.944Z,98.5
2017-04-12T01:03:37.995Z,99.55
2017-04-12T01:04:47.208Z,99.36
2017-04-12T01:05:56.162Z,99.36
2017-04-12T01:07:05.115Z,99.64
2017-04-12T01:08:14.075Z,99.55
2017-04-12T01:09:23.033Z,99.36
2017-04-12T01:10:32.289Z,99.45
2017-04-12T01:11:41.239Z,99.16
2017-04-12T01:12:50.197Z,99.55
2017-04-12T01:13:59.147Z,99.64
2017-04-12T01:15:08.099Z,99.99
2017-04-12T01:16:17.358Z,99.99
2017-04-12T01:17:26.310Z,99.93
2017-04-12T01:18:35.347Z,99.99
2017-04-12T01:19:44.348Z,99.55
2017-04-12T01:20:53.385Z,99.55
2017-04-12T01:22:02.592Z,99.55
2017-04-12T01:23:11.548Z,99.99
2017-04-12T01:24:20.512Z,99.99
2017-04-12T01:25:29.469Z,99.99
2017-04-12T01:26:38.742Z,99.99
2017-04-12T01:27:48.032Z,99.99
2017-04-12T01:28:56.988Z,99.99
2017-04-12T01:30:05.940Z,99.99
2017-04-12T01:31:14.900Z,99.99
2017-04-12T01:32:23.850Z,99.99
2017-04-12T01:33:33.103Z,99.99
2017-04-12T01:34:42.055Z,99.99
2017-04-12T01:35:51.094Z,99.99
2017-04-12T01:37:00.050Z,99.99
2017-04-12T01:38:09.001Z,99.99
2017-04-12T01:39:18.204Z,99.99
2017-04-12T01:40:27.152Z,99.99
2017-04-12T01:41:36.424Z,99.99
2017-04-12T01:42:45.370Z,99.99
2017-04-12T01:43:54.412Z,99.99
2017-04-12T01:45:03.663Z,99.99
2017-04-12T01:46:12.625Z,99.99
2017-04-12T01:47:21.579Z,99.99
2017-04-12T01:48:30.534Z,99.99
2017-04-12T01:49:39.489Z,99.99
2017-04-12T01:50:48.688Z,99.99
2017-04-12T01:51:57.640Z,99.99
2017-04-12T01:53:06.592Z,99.99
2017-04-12T01:54:15.541Z,99.99
2017-04-12T01:55:24.491Z,99.99
2017-04-12T01:56:33.700Z,99.99
2017-04-12T01:57:42.662Z,99.99
2017-04-12T01:58:51.618Z,99.99
2017-04-12T02:00:00.574Z,99.99
2017-04-12T02:01:09.531Z,99.99
2017-04-12T02:02:18.742Z,99.99
2017-04-12T02:03:27.697Z,99.99
2017-04-12T02:04:36.656Z,99.99
2017-04-12T02:05:45.602Z,99.99
2017-04-12T02:06:54.559Z,99.99
2017-04-12T02:08:03.758Z,99.99
2017-04-12T02:09:13.040Z,99.99
2017-04-12T02:10:21.992Z,99.99
2017-04-12T02:11:30.942Z,99.99
2017-04-12T02:12:39.889Z,99.99
2017-04-12T02:13:49.507Z,99.99
2017-04-12T02:14:58.459Z,99.99
2017-04-12T02:16:07.417Z,99.99
2017-04-12T02:17:16.375Z,99.99
2017-04-12T02:18:25.327Z,99.99
2017-04-12T02:19:34.526Z,99.99
2017-04-12T02:20:43.474Z,99.99
2017-04-12T02:21:52.421Z,99.99
2017-04-12T02:23:01.368Z,99.99
2017-04-12T02:24:10.317Z,99.99
2017-04-12T02:25:19.521Z,99.99
2017-04-12T02:26:28.475Z,99.99
2017-04-12T02:27:37.475Z,99.99
2017-04-12T02:28:46.424Z,99.99
2017-04-12T02:29:55.376Z,99.99
2017-04-12T02:31:04.906Z,99.99
2017-04-12T02:32:13.949Z,99.99
2017-04-12T02:33:23.234Z,99.99
2017-04-12T02:34:32.191Z,99.99
2017-04-12T02:35:41.145Z,99.99
2017-04-12T02:36:50.397Z,99.99
2017-04-12T02:37:59.350Z,99.99
2017-04-12T02:39:08.309Z,99.99
2017-04-12T02:40:17.262Z,99.99
2017-04-12T02:41:26.213Z,99.99
2017-04-12T02:42:35.451Z,99.99
2017-04-12T02:43:44.405Z,99.99
2017-04-12T02:44:53.361Z,99.99
2017-04-12T02:46:02.315Z,99.99
2017-04-12T02:47:11.361Z,99.99
2017-04-12T02:48:20.712Z,99.99
2017-04-12T02:49:29.766Z,99.99
2017-04-12T02:50:38.721Z,99.99
2017-04-12T02:51:47.672Z,99.99
2017-04-12T02:52:56.631Z,99.99
2017-04-12T02:54:05.837Z,99.99
2017-04-12T02:55:14.875Z,99.99
2017-04-12T02:56:23.825Z,99.99
2017-04-12T02:57:32.772Z,99.99
2017-04-12T02:58:41.723Z,99.99
2017-04-12T02:59:50.976Z,99.99
2017-04-12T03:00:59.933Z,99.99
2017-04-12T03:02:08.889Z,99.99
2017-04-12T03:03:17.843Z,99.99
2017-04-12T03:04:26.882Z,99.99
2017-04-12T03:05:36.134Z,99.99
2017-04-12T03:06:45.088Z,99.99
2017-04-12T03:07:54.041Z,99.99
2017-04-12T03:09:02.997Z,99.99
2017-04-12T03:10:11.956Z,99.99
2017-04-12T03:11:21.208Z,99.99
2017-04-12T03:12:30.162Z,99.99
2017-04-12T03:13:39.199Z,99.99
2017-04-12T03:14:48.162Z,99.99
2017-04-12T03:15:57.199Z,99.99
2017-04-12T03:17:06.455Z,99.99
2017-04-12T03:18:15.405Z,99.99
2017-04-12T03:19:24.355Z,99.99
2017-04-12T03:20:33.308Z,99.99
2017-04-12T03:21:42.590Z,99.99
2017-04-12T03:22:51.801Z,99.99
2017-04-12T03:24:00.757Z,99.99
2017-04-12T03:25:09.710Z,99.99
2017-04-12T03:26:18.655Z,99.99
2017-04-12T03:27:27.610Z,99.99
2017-04-12T03:28:36.865Z,99.99
2017-04-12T03:29:45.996Z,99.99
2017-04-12T03:30:54.942Z,99.99
2017-04-12T03:32:03.891Z,99.99
2017-04-12T03:33:13.168Z,99.99
2017-04-12T03:34:22.365Z,99.99
2017-04-12T03:35:31.317Z,99.99
2017-04-12T03:36:40.272Z,99.99
2017-04-12T03:37:49.311Z,99.99
2017-04-12T03:38:58.259Z,99.99
2017-04-12T03:40:07.460Z,99.99
2017-04-12T03:41:16.423Z,99.99
2017-04-12T03:42:25.378Z,99.99
2017-04-12T03:43:34.335Z,99.99
2017-04-12T03:44:43.296Z,99.99
2017-04-12T03:45:52.549Z,99.99
2017-04-12T03:47:01.591Z,99.99
2017-04-12T03:48:10.545Z,99.99
2017-04-12T03:49:19.500Z,99.99
2017-04-12T03:50:28.460Z,99.99
2017-04-12T03:51:37.657Z,99.99
2017-04-12T03:52:46.615Z,99.99
2017-04-12T03:53:55.577Z,99.99
2017-04-12T03:55:04.611Z,99.99
2017-04-12T03:56:13.564Z,99.99
2017-04-12T03:57:22.763Z,99.99
2017-04-12T03:58:31.716Z,99.99
2017-04-12T03:59:40.672Z,99.99
2017-04-12T04:00:49.713Z,99.99
2017-04-12T04:01:58.661Z,99.99
2017-04-12T04:03:07.865Z,99.99
2017-04-12T04:04:16.903Z,99.99
2017-04-12T04:05:25.859Z,99.99
2017-04-12T04:06:34.896Z,99.99
2017-04-12T04:07:43.933Z,99.99
2017-04-12T04:08:53.182Z,99.99
2017-04-12T04:10:02.136Z,99.99
2017-04-12T04:11:11.089Z,99.99
2017-04-12T04:12:20.045Z,99.99
2017-04-12T04:13:28.999Z,99.99
2017-04-12T04:14:38.252Z,99.99
2017-04-12T04:15:47.293Z,99.99
2017-04-12T04:16:56.330Z,99.99
2017-04-12T04:18:05.291Z,99.99
2017-04-12T04:19:14.244Z,99.99
2017-04-12T04:20:23.496Z,99.99
2017-04-12T04:21:32.454Z,99.99
2017-04-12T04:22:41.488Z,99.99
2017-04-12T04:23:50.445Z,99.99
2017-04-12T04:24:59.404Z,99.99
2017-04-12T04:26:08.606Z,99.99
2017-04-12T04:27:17.552Z,99.99
2017-04-12T04:28:26.596Z,99.99
2017-04-12T04:29:35.551Z,99.99
2017-04-12T04:30:44.504Z,99.99
2017-04-12T04:31:53.706Z,99.99
2017-04-12T04:33:02.661Z,99.99
2017-04-12T04:34:11.701Z,99.99
2017-04-12T04:35:20.652Z,99.99
2017-04-12T04:36:29.605Z,99.99
2017-04-12T04:37:38.809Z,99.99
2017-04-12T04:38:47.759Z,99.99
2017-04-12T04:39:56.710Z,99.99
2017-04-12T04:41:05.663Z,99.99
2017-04-12T04:42:14.615Z,99.99
2017-04-12T04:43:23.817Z,99.99
2017-04-12T04:44:32.864Z,99.99
2017-04-12T04:45:41.817Z,99.99
2017-04-12T04:46:50.813Z,99.99
2017-04-12T04:47:59.773Z,99.99
2017-04-12T04:49:09.065Z,99.99
2017-04-12T04:50:18.017Z,99.99
2017-04-12T04:51:26.966Z,99.99
2017-04-12T04:52:35.922Z,99.99
2017-04-12T04:53:44.881Z,99.99
2017-04-12T04:54:55.050Z,99.99
2017-04-12T04:56:04.000Z,99.99
2017-04-12T04:57:12.951Z,99.99
2017-04-12T04:58:21.903Z,99.99
2017-04-12T04:59:31.181Z,99.99
2017-04-12T05:00:40.392Z,99.99
2017-04-12T05:01:49.341Z,99.99
2017-04-12T05:02:58.381Z,99.99
2017-04-12T05:04:07.328Z,99.99
2017-04-12T05:05:16.278Z,99.99
2017-04-12T05:06:25.479Z,99.99
2017-04-12T05:07:34.522Z,99.99
2017-04-12T05:08:43.476Z,99.99
2017-04-12T05:09:52.679Z,99.99
2017-04-12T05:11:02.127Z,99.99
2017-04-12T05:12:11.525Z,99.99
2017-04-12T05:13:20.610Z,99.99
2017-04-12T05:14:29.884Z,99.99
2017-04-12T05:15:39.083Z,99.99
2017-04-12T05:16:48.384Z,99.99
2017-04-12T05:17:57.681Z,99.99
2017-04-12T05:19:06.758Z,99.99
2017-04-12T05:20:15.725Z,99.99
2017-04-12T05:21:24.871Z,99.99
2017-04-12T05:22:33.979Z,99.99
2017-04-12T05:23:43.286Z,99.99
2017-04-12T05:24:52.239Z,99.99
2017-04-12T05:26:06.785Z,99.99
2017-04-12T05:27:30.353Z,99.99
2017-04-12T05:28:41.407Z,99.99
2017-04-12T05:29:50.361Z,99.99
2017-04-12T05:30:59.309Z,99.99
2017-04-12T05:32:08.602Z,99.99
2017-04-12T05:33:17.877Z,99.99
2017-04-12T05:34:27.263Z,99.99
2017-04-12T05:35:36.295Z,99.99
2017-04-12T05:36:45.279Z,99.99
2017-04-12T05:37:54.649Z,99.99
2017-04-12T05:39:03.690Z,99.99
2017-04-12T05:40:12.893Z,99.99
2017-04-12T05:41:21.845Z,99.99
2017-04-12T05:42:30.792Z,99.99
2017-04-12T05:43:40.069Z,99.99
2017-04-12T05:44:49.024Z,99.99
2017-04-12T05:45:58.279Z,99.99
2017-04-12T05:47:07.264Z,99.99
2017-04-12T05:48:16.305Z,99.99
2017-04-12T05:49:25.256Z,99.99
2017-04-12T05:50:34.215Z,99.99
2017-04-12T05:51:43.603Z,99.99
2017-04-12T05:52:52.648Z,99.99
2017-04-12T05:54:01.700Z,99.99
2017-04-12T05:55:10.988Z,99.99
2017-04-12T05:56:19.937Z,99.99
2017-04-12T05:57:29.147Z,99.99
2017-04-12T05:58:38.099Z,99.99
2017-04-12T05:59:47.102Z,99.99
2017-04-12T06:00:56.054Z,99.99
2017-04-12T06:02:05.012Z,99.99
2017-04-12T06:03:14.217Z,99.99
2017-04-12T06:04:23.172Z,99.99
2017-04-12T06:05:32.133Z,99.99
2017-04-12T06:06:41.179Z,99.99
2017-04-12T06:07:50.129Z,99.99
2017-04-12T06:08:59.329Z,99.99
2017-04-12T06:10:08.290Z,99.99
2017-04-12T06:11:17.256Z,99.99
2017-04-12T06:12:26.305Z,99.99
2017-04-12T06:13:35.263Z,99.99
2017-04-12T06:14:44.466Z,99.99
2017-04-12T06:15:53.439Z,99.99
2017-04-12T06:17:02.391Z,99.99
2017-04-12T06:18:11.463Z,99.99
2017-04-12T06:19:23.493Z,99.99
2017-04-12T06:20:42.139Z,99.99
2017-04-12T06:21:51.258Z,99.99
2017-04-12T06:23:03.136Z,99.99
2017-04-12T06:24:19.906Z,99.99
2017-04-12T06:25:28.961Z,99.99
2017-04-12T06:26:38.303Z,99.99
2017-04-12T06:27:47.372Z,99.99
2017-04-12T06:28:56.451Z,99.99
2017-04-12T06:30:05.425Z,99.99
2017-04-12T06:31:14.400Z,99.99
2017-04-12T06:32:23.628Z,99.99
2017-04-12T06:33:32.610Z,99.99
2017-04-12T06:34:41.589Z,99.99
2017-04-12T06:35:50.573Z,99.99
2017-04-12T06:36:59.552Z,99.99
2017-04-12T06:38:08.781Z,99.99
2017-04-12T06:39:17.760Z,99.99
2017-04-12T06:40:26.750Z,99.99
2017-04-12T06:41:35.728Z,99.99
2017-04-12T06:42:44.700Z,99.99
2017-04-12T06:43:53.928Z,99.99
2017-04-12T06:45:02.908Z,99.99
2017-04-12T06:46:11.889Z,99.99
2017-04-12T06:47:20.865Z,99.99
2017-04-12T06:48:29.841Z,99.99
2017-04-12T06:49:39.128Z,99.99
2017-04-12T06:50:48.117Z,99.99
2017-04-12T06:51:57.418Z,99.99
2017-04-12T06:53:06.394Z,99.99
2017-04-12T06:54:15.378Z,99.99
2017-04-12T06:55:24.688Z,99.99
2017-04-12T06:56:33.764Z,99.99
2017-04-12T06:57:42.833Z,99.99
2017-04-12T06:58:51.814Z,99.99
2017-04-12T07:00:00.790Z,99.99
2017-04-12T07:01:10.022Z,99.99
2017-04-12T07:02:18.995Z,99.99
2017-04-12T07:03:27.966Z,99.99
2017-04-12T07:04:36.953Z,99.99
2017-04-12T07:05:45.930Z,99.99
2017-04-12T07:06:55.160Z,99.99
2017-04-12T07:08:04.143Z,99.99
2017-04-12T07:09:13.221Z,99.99
2017-04-12T07:10:22.207Z,99.99
2017-04-12T07:11:31.188Z,99.99
2017-04-12T07:12:40.415Z,99.99
2017-04-12T07:13:49.392Z,99.99
2017-04-12T07:14:58.379Z,99.99
2017-04-12T07:16:07.439Z,99.99
2017-04-12T07:17:16.506Z,99.99
2017-04-12T07:18:25.776Z,99.99
2017-04-12T07:19:34.751Z,99.99
2017-04-12T07:20:43.726Z,99.99
2017-04-12T07:21:53.026Z,99.99
2017-04-12T07:23:02.005Z,99.99
2017-04-12T07:24:11.278Z,99.99
2017-04-12T07:25:20.256Z,99.99
2017-04-12T07:26:29.226Z,99.99
2017-04-12T07:27:38.196Z,99.99
2017-04-12T07:28:47.173Z,99.99
2017-04-12T07:29:56.541Z,99.99
2017-04-12T07:31:05.617Z,99.99
2017-04-12T07:32:14.599Z,99.99
2017-04-12T07:33:23.631Z,99.99
2017-04-12T07:34:32.606Z,99.99
2017-04-12T07:35:41.828Z,99.99
2017-04-12T07:36:50.895Z,99.99
2017-04-12T07:37:59.877Z,99.99
2017-04-12T07:39:08.847Z,99.99
2017-04-12T07:40:17.891Z,99.99
2017-04-12T07:41:27.093Z,99.99
2017-04-12T07:42:36.096Z,99.99
2017-04-12T07:43:45.051Z,99.99
2017-04-12T07:44:54.149Z,99.99
2017-04-12T07:46:03.103Z,99.99
2017-04-12T07:47:13.903Z,99.99
2017-04-12T07:48:25.760Z,99.99
2017-04-12T07:49:37.840Z,99.99
2017-04-12T07:50:46.972Z,99.99
2017-04-12T07:51:55.936Z,99.99
2017-04-12T07:53:05.706Z,99.99
2017-04-12T07:54:15.233Z,99.99
2017-04-12T07:55:24.341Z,99.99
2017-04-12T07:56:33.478Z,99.99
2017-04-12T07:57:42.579Z,99.99
2017-04-12T07:58:52.117Z,99.99
2017-04-12T08:00:01.319Z,99.99
2017-04-12T08:01:10.405Z,99.99
2017-04-12T08:02:19.452Z,99.99
2017-04-12T08:03:28.588Z,99.99
2017-04-12T08:04:38.003Z,99.99
2017-04-12T08:05:47.305Z,99.99
2017-04-12T08:06:56.776Z,99.99
2017-04-12T08:08:05.826Z,99.99
2017-04-12T08:09:14.983Z,99.99
2017-04-12T08:10:24.264Z,99.99
2017-04-12T08:11:33.298Z,99.99
2017-04-12T08:12:42.611Z,99.99
2017-04-12T08:13:51.721Z,99.99
2017-04-12T08:15:01.515Z,99.99
2017-04-12T08:16:11.148Z,99.99
2017-04-12T08:17:20.106Z,99.99
2017-04-12T08:18:29.058Z,99.99
2017-04-12T08:19:38.010Z,99.99
2017-04-12T08:20:47.146Z,99.99
2017-04-12T08:21:56.356Z,99.99
2017-04-12T08:23:05.307Z,99.99
2017-04-12T08:24:14.352Z,99.99
2017-04-12T08:25:23.302Z,99.99
2017-04-12T08:26:32.258Z,99.99
2017-04-12T08:27:41.463Z,99.99
2017-04-12T08:28:50.502Z,99.99
2017-04-12T08:29:59.538Z,99.99
2017-04-12T08:31:08.489Z,99.99
2017-04-12T08:32:17.442Z,99.99
2017-04-12T08:33:26.650Z,99.99
2017-04-12T08:34:35.603Z,99.99
2017-04-12T08:35:44.556Z,99.99
2017-04-12T08:36:53.512Z,99.99
2017-04-12T08:38:02.475Z,99.99
2017-04-12T08:39:11.766Z,99.99
2017-04-12T08:40:20.721Z,99.99
2017-04-12T08:41:29.685Z,99.99
2017-04-12T08:42:38.637Z,99.99
2017-04-12T08:43:47.606Z,99.99
2017-04-12T08:44:56.808Z,99.99
2017-04-12T08:46:05.780Z,99.99
2017-04-12T08:47:14.730Z,99.99
2017-04-12T08:48:23.684Z,99.99
2017-04-12T08:49:32.729Z,99.99
2017-04-12T08:50:41.934Z,99.99
2017-04-12T08:51:50.894Z,99.99
2017-04-12T08:52:59.932Z,99.99
2017-04-12T08:54:09.139Z,99.99
2017-04-12T08:55:18.265Z,99.99
2017-04-12T08:56:27.713Z,99.99
2017-04-12T08:57:37.091Z,99.99
2017-04-12T08:58:46.201Z,99.99
2017-04-12T08:59:55.469Z,99.99
2017-04-12T09:01:04.486Z,99.99
2017-04-12T09:02:13.723Z,99.99
2017-04-12T09:03:22.939Z,99.99
2017-04-12T09:04:32.455Z,99.99
2017-04-12T09:05:41.616Z,99.99
2017-04-12T09:06:50.727Z,99.99
2017-04-12T09:08:00.021Z,99.99
2017-04-12T09:09:09.201Z,99.99
2017-04-12T09:10:18.340Z,99.99
2017-04-12T09:11:27.406Z,99.99
2017-04-12T09:12:36.596Z,99.99
2017-04-12T09:13:46.053Z,99.99
2017-04-12T09:14:55.326Z,99.99
2017-04-12T09:16:04.432Z,99.99
2017-04-12T09:17:13.483Z,99.99
2017-04-12T09:18:22.442Z,99.99
2017-04-12T09:19:31.679Z,99.99
2017-04-12T09:20:40.731Z,99.99
2017-04-12T09:21:49.741Z,99.99
2017-04-12T09:22:58.695Z,99.99
2017-04-12T09:24:07.653Z,99.99
2017-04-12T09:25:16.865Z,99.99
2017-04-12T09:26:25.914Z,99.99
2017-04-12T09:27:35.189Z,99.99
2017-04-12T09:28:44.145Z,99.99
2017-04-12T09:29:53.100Z,99.99
2017-04-12T09:31:02.306Z,99.99
2017-04-12T09:32:11.260Z,99.99
2017-04-12T09:33:20.211Z,99.99
2017-04-12T09:34:29.213Z,99.99
2017-04-12T09:35:38.174Z,99.99
2017-04-12T09:36:47.383Z,99.99
2017-04-12T09:37:56.343Z,99.99
2017-04-12T09:39:05.308Z,99.99
2017-04-12T09:40:14.268Z,99.99
2017-04-12T09:41:23.224Z,99.99
2017-04-12T09:42:32.485Z,99.99
2017-04-12T09:43:41.444Z,99.99
2017-04-12T09:44:50.398Z,99.99
2017-04-12T09:45:59.355Z,99.99
2017-04-12T09:47:08.643Z,99.99
2017-04-12T09:48:17.850Z,99.99
2017-04-12T09:49:26.804Z,99.99
2017-04-12T09:50:35.760Z,99.99
2017-04-12T09:51:44.843Z,99.99
2017-04-12T09:52:54.153Z,99.99
2017-04-12T09:54:03.368Z,99.99
2017-04-12T09:55:12.550Z,99.99
2017-04-12T09:56:21.516Z,99.99
2017-04-12T09:57:30.710Z,99.99
2017-04-12T09:58:39.763Z,99.99
2017-04-12T09:59:49.316Z,99.99
2017-04-12T10:00:58.373Z,99.99
2017-04-12T10:02:07.327Z,99.99
2017-04-12T10:03:16.292Z,99.99
2017-04-12T10:04:25.263Z,99.99
2017-04-12T10:05:34.474Z,97.85
2017-04-12T10:06:43.514Z,99.99
2017-04-12T10:07:52.474Z,97.85
2017-04-12T10:09:01.424Z,97.99
2017-04-12T10:10:10.464Z,97.8
2017-04-12T10:11:19.712Z,99.99
2017-04-12T10:12:28.668Z,97.7
2017-04-12T10:13:37.956Z,99.27
2017-04-12T10:14:46.981Z,99.08
2017-04-12T10:15:56.020Z,98.22
2017-04-12T10:17:05.227Z,98.22
2017-04-12T10:18:14.190Z,99.95
2017-04-12T10:19:23.143Z,99.27
2017-04-12T10:20:32.099Z,96.03
2017-04-12T10:21:41.053Z,96.22
2017-04-12T10:22:50.347Z,95.08
2017-04-12T10:23:59.304Z,96.13
2017-04-12T10:25:08.265Z,95.56
2017-04-12T10:26:17.223Z,95.56
2017-04-12T10:27:26.226Z,94.03
2017-04-12T10:28:35.437Z,94.6
2017-04-12T10:29:44.393Z,96.32
2017-04-12T10:30:53.348Z,95.56
2017-04-12T10:32:02.304Z,93.46
2017-04-12T10:33:11.346Z,93.65
2017-04-12T10:34:20.552Z,94.22
2017-04-12T10:35:29.509Z,94.41
2017-04-12T10:36:38.464Z,95.27
2017-04-12T10:37:47.426Z,92.98
2017-04-12T10:38:56.380Z,90.26
2017-04-12T10:40:05.643Z,91.27
2017-04-12T10:41:14.599Z,93.12
2017-04-12T10:42:23.651Z,93.08
2017-04-12T10:43:32.609Z,91.12
2017-04-12T10:44:41.563Z,88.16
2017-04-12T10:45:50.768Z,88.07
2017-04-12T10:46:59.812Z,88.64
2017-04-12T10:48:08.768Z,87.11
2017-04-12T10:49:17.803Z,88.54
2017-04-12T10:50:26.762Z,92.36
2017-04-12T10:51:36.057Z,92.07
2017-04-12T10:52:45.018Z,89.02
2017-04-12T10:53:53.966Z,88.26
2017-04-12T10:55:03.006Z,85.68
2017-04-12T10:56:12.033Z,86.44
2017-04-12T10:57:21.259Z,86.73
2017-04-12T10:58:30.339Z,86.82
2017-04-12T10:59:39.295Z,89.21
2017-04-12T11:00:48.416Z,88.54
2017-04-12T11:01:57.694Z,89.25
2017-04-12T11:03:06.902Z,88.4
2017-04-12T11:04:15.864Z,90.97
2017-04-12T11:05:24.893Z,92.5
2017-04-12T11:06:33.936Z,93.17
2017-04-12T11:07:43.223Z,87.15
2017-04-12T11:08:52.427Z,89.83
2017-04-12T11:10:01.478Z,90.31
2017-04-12T11:11:10.520Z,87.63
2017-04-12T11:12:19.567Z,85.05
2017-04-12T11:13:28.526Z,85.53
2017-04-12T11:14:37.740Z,85.34
2017-04-12T11:15:46.746Z,80.95
2017-04-12T11:16:55.804Z,84.96
2017-04-12T11:18:04.854Z,85.72
2017-04-12T11:19:13.960Z,88.97
2017-04-12T11:20:23.167Z,86.49
2017-04-12T11:21:32.448Z,88.3
2017-04-12T11:22:41.517Z,85.25
2017-04-12T11:23:50.590Z,84.39
2017-04-12T11:24:59.591Z,81.43
2017-04-12T11:26:08.921Z,82.04
2017-04-12T11:27:17.878Z,81.52
2017-04-12T11:28:26.918Z,80.47
2017-04-12T11:29:35.881Z,80.19
2017-04-12T11:30:44.840Z,81.33
2017-04-12T11:31:54.101Z,80.19
2017-04-12T11:33:03.097Z,80.09
2017-04-12T11:34:12.395Z,81.71
2017-04-12T11:35:21.375Z,82.38
2017-04-12T11:36:30.355Z,84
2017-04-12T11:37:39.590Z,87.54
2017-04-12T11:38:48.568Z,85.53
2017-04-12T11:39:57.543Z,83.62
2017-04-12T11:41:06.523Z,80.66
2017-04-12T11:42:15.509Z,81.14
2017-04-12T11:43:24.874Z,81.71
2017-04-12T11:44:33.867Z,85.72
2017-04-12T11:45:42.845Z,87.73
2017-04-12T11:46:51.822Z,79.52
2017-04-12T11:48:00.802Z,81.62
2017-04-12T11:49:10.145Z,84.96
2017-04-12T11:50:19.127Z,83.53
2017-04-12T11:51:28.112Z,84.39
2017-04-12T11:52:37.102Z,84.29
2017-04-12T11:53:46.074Z,83.14
2017-04-12T11:54:55.389Z,80.85
2017-04-12T11:56:04.463Z,81.9
2017-04-12T11:57:13.444Z,80.76
2017-04-12T11:58:22.420Z,82.57
2017-04-12T11:59:31.405Z,83.81
2017-04-12T12:00:40.647Z,80.7
2017-04-12T12:01:49.631Z,82.61
2017-04-12T12:02:58.605Z,81.09
2017-04-12T12:04:07.576Z,78.7
2017-04-12T12:05:16.542Z,81.47
2017-04-12T12:06:25.752Z,83.38
2017-04-12T12:07:34.712Z,83.67
2017-04-12T12:08:43.756Z,84.72
2017-04-12T12:09:52.724Z,86.58
2017-04-12T12:11:01.683Z,83.47
2017-04-12T12:12:10.894Z,85.53
2017-04-12T12:13:19.850Z,83.62
2017-04-12T12:14:28.817Z,85.29
2017-04-12T12:15:37.768Z,85.72
2017-04-12T12:16:46.771Z,84
2017-04-12T12:17:56.059Z,83.53
2017-04-12T12:19:05.013Z,83.05
2017-04-12T12:20:13.974Z,81.37
2017-04-12T12:21:22.928Z,81.09
2017-04-12T12:22:31.897Z,80.09
2017-04-12T12:23:41.489Z,81.62
2017-04-12T12:24:50.462Z,79.8
2017-04-12T12:25:59.415Z,81.52
2017-04-12T12:27:08.369Z,76.65
2017-04-12T12:28:17.328Z,79.71
2017-04-12T12:29:26.529Z,80.66
2017-04-12T12:30:35.488Z,80.38
2017-04-12T12:31:44.595Z,80.57
2017-04-12T12:32:53.553Z,80.66
2017-04-12T12:34:02.505Z,78.47
2017-04-12T12:35:11.716Z,79.23
2017-04-12T12:36:20.670Z,81.14
2017-04-12T12:37:29.625Z,83.43
2017-04-12T12:38:38.927Z,79.33
2017-04-12T12:39:47.878Z,77.61
2017-04-12T12:40:57.092Z,77.84
2017-04-12T12:42:06.044Z,79.61
2017-04-12T12:43:14.999Z,81.09
2017-04-12T12:44:23.953Z,80.61
2017-04-12T12:45:33.236Z,79.75
2017-04-12T12:46:42.636Z,77.55
2017-04-12T12:47:51.828Z,76.12
2017-04-12T12:49:00.781Z,76.6
2017-04-12T12:50:09.732Z,78.89
2017-04-12T12:51:18.771Z,78.7
2017-04-12T12:52:28.024Z,77.94
2017-04-12T12:53:36.976Z,80.8
2017-04-12T12:54:45.932Z,79.02
2017-04-12T12:55:54.886Z,76.82
2017-04-12T12:57:03.965Z,80.84
2017-04-12T12:58:13.180Z,75.78
2017-04-12T12:59:22.225Z,79.12
2017-04-12T13:00:31.181Z,80.74
2017-04-12T13:01:40.143Z,81.79
2017-04-12T13:02:49.108Z,81.6
2017-04-12T13:03:58.319Z,81.13
2017-04-12T13:05:07.282Z,80.84
2017-04-12T13:06:16.237Z,80.17
2017-04-12T13:07:25.528Z,79.88
2017-04-12T13:08:34.495Z,78.07
2017-04-12T13:09:43.790Z,75.87
2017-04-12T13:10:52.838Z,76.35
2017-04-12T13:12:01.800Z,73.39
2017-04-12T13:13:10.761Z,74.44
2017-04-12T13:14:19.714Z,75.01
2017-04-12T13:15:29.007Z,74.15
2017-04-12T13:16:37.974Z,73.77
2017-04-12T13:17:47.016Z,70.9
2017-04-12T13:18:55.975Z,71.86
2017-04-12T13:20:04.941Z,75.49
2017-04-12T13:21:14.149Z,73.86
2017-04-12T13:22:23.108Z,75.49
2017-04-12T13:23:32.104Z,74.73
2017-04-12T13:24:41.152Z,75.2
2017-04-12T13:25:50.113Z,77.5
2017-04-12T13:27:01.055Z,79.6
2017-04-12T13:28:11.399Z,78.74
2017-04-12T13:29:20.355Z,75.1
2017-04-12T13:30:29.762Z,74.82
2017-04-12T13:31:38.740Z,75.01
2017-04-12T13:32:47.946Z,70.42
2017-04-12T13:33:56.910Z,74.34
2017-04-12T13:35:05.986Z,73.96
2017-04-12T13:36:15.031Z,77.3
2017-04-12T13:37:23.993Z,78.07
2017-04-12T13:38:33.197Z,78.93
2017-04-12T13:39:42.155Z,77.01
2017-04-12T13:40:51.115Z,76.82
2017-04-12T13:42:00.251Z,75.96
2017-04-12T13:43:09.211Z,79.02
2017-04-12T13:44:18.420Z,78.74
2017-04-12T13:45:27.378Z,80.74
2017-04-12T13:46:36.337Z,82.37
2017-04-12T13:47:45.295Z,75.59
2017-04-12T13:48:54.255Z,76.82
2017-04-12T13:50:03.637Z,78.74
2017-04-12T13:51:12.798Z,76.73
2017-04-12T13:52:21.768Z,76.45
2017-04-12T13:53:30.729Z,74.05
2017-04-12T13:54:39.911Z,75.3
2017-04-12T13:55:49.118Z,79.08
2017-04-12T13:56:58.069Z,80.9
2017-04-12T13:58:07.033Z,81.85
2017-04-12T13:59:15.992Z,81.66
2017-04-12T14:00:24.952Z,83.47
2017-04-12T14:01:34.481Z,84.23
2017-04-12T14:02:43.437Z,81.66
2017-04-12T14:03:52.400Z,83.14
2017-04-12T14:05:01.355Z,82.76
2017-04-12T14:06:10.314Z,83.72
2017-04-12T14:07:19.527Z,83.53
2017-04-12T14:08:28.477Z,85.34
2017-04-12T14:09:37.429Z,86.3
2017-04-12T14:10:46.388Z,87.11
2017-04-12T14:11:55.338Z,85.3
2017-04-12T14:13:04.548Z,85.49
2017-04-12T14:14:13.513Z,87.68
2017-04-12T14:15:22.462Z,89.5
2017-04-12T14:16:31.427Z,89.07
2017-04-12T14:17:40.384Z,89.54
2017-04-12T14:18:49.703Z,90.5
2017-04-12T14:19:58.659Z,92.69
2017-04-12T14:21:07.623Z,92.5
2017-04-12T14:22:16.580Z,92.5
2017-04-12T14:23:25.532Z,92.79
2017-04-12T14:24:34.765Z,93.17
2017-04-12T14:25:43.715Z,93.46
2017-04-12T14:26:52.670Z,93.36
2017-04-12T14:28:01.623Z,94.41
2017-04-12T14:29:10.667Z,95.27
2017-04-12T14:30:19.912Z,94.98
2017-04-12T14:31:28.870Z,95.27
2017-04-12T14:32:37.829Z,95.94
2017-04-12T14:33:46.791Z,95.37
2017-04-12T14:34:55.743Z,95.94
2017-04-12T14:36:04.990Z,96.22
2017-04-12T14:37:13.952Z,96.13
2017-04-12T14:38:22.908Z,96.51
2017-04-12T14:39:31.859Z,96.8
2017-04-12T14:40:40.820Z,96.41
2017-04-12T14:41:50.029Z,97.17
2017-04-12T14:42:58.984Z,97.46
2017-04-12T14:44:07.938Z,96.98
2017-04-12T14:45:16.893Z,96.7
2017-04-12T14:46:25.846Z,96.03
2017-04-12T14:47:35.058Z,96.89
2017-04-12T14:48:44.013Z,97.27
2017-04-12T14:49:53.061Z,97.08
2017-04-12T14:51:02.018Z,96.98
2017-04-12T14:52:11.059Z,96.84